This is the latest recevied weather packets stored in our database for station/object HJ3GNC-15. If no packets are shown the sender has not sent any weather packets the latest 1 day(s).
| Time | Temp. | Humidity | Pressure | Rain* | Wind** | Luminosity | Snow |
|---|---|---|---|---|---|---|---|
| 1778093969 | 19.44° C | 69% | 1013 hPa | 0 mm | - | - | - |
| 1778088261 | 18.33° C | 84% | 1015 hPa | 0 mm | - | - | - |
| 1778086374 | 18.33° C | 84% | 1015 hPa | 0 mm | - | - | - |
| 1778082553 | 18.33° C | 80% | 1015 hPa | 0 mm | - | - | - |
| 1778079644 | 18.33° C | 77% | 1016 hPa | 0 mm | - | - | - |
| 1778077746 | 17.22° C | 79% | 1016 hPa | 0 mm | - | - | - |
| 1778076794 | 16.67° C | 80% | 1016 hPa | 0 mm | - | - | - |
| 1778075842 | 17.22° C | 78% | 1016 hPa | 0 mm | - | - | - |
| 1778073007 | 16.11° C | 84% | 1016 hPa | 0 mm | - | - | - |
| 1778072062 | 16.67° C | 83% | 1016 hPa | 0 mm | - | - | - |
| 1778069215 | 15° C | 91% | 1016 hPa | 0 mm | - | - | - |
| 1778068266 | 15° C | 91% | 1016 hPa | 0 mm | - | - | - |
| 1778061659 | 13.33° C | 92% | 1016 hPa | 0 mm | - | - | - |
| 1778060715 | 13.33° C | 92% | 1016 hPa | 0 mm | - | - | - |
| 1778059769 | 13.89° C | 91% | 1015 hPa | 0 mm | - | - | - |
| 1778055985 | 14.44° C | 91% | 1015 hPa | 0 mm | - | - | - |
| 1778054099 | 14.44° C | 91% | 1015 hPa | 0 mm | - | - | - |
| 1778049374 | 14.44° C | 92% | 1015 hPa | 0 mm | - | - | - |
| 1778048425 | 14.44° C | 91% | 1016 hPa | 0 mm | - | - | - |
| 1778047482 | 14.44° C | 91% | 1015 hPa | 0 mm | - | - | - |
| 1778046534 | 14.44° C | 91% | 1015 hPa | 0 mm | - | - | - |
| 1778045582 | 14.44° C | 91% | 1015 hPa | 0 mm | - | - | - |
| 1778043678 | 14.44° C | 91% | 1016 hPa | 0 mm | - | - | - |
| 1778042725 | 14.44° C | 91% | 1016 hPa | 0 mm | - | - | - |
| 1778040813 | 15° C | 89% | 1016 hPa | 0 mm | - | - | - |
* Rain latest hour (hover to see other rain measurements)
** Current wind speed in m/s (hover to see current wind gust speed)